Time,TemperatureF,DewpointF,PressureIn,WindDirection,WindDirectionDegrees,WindSpeedMPH,WindSpeedGustMPH,Humidity,HourlyPrecipIn,Conditions,Clouds,dailyrainin,SoftwareType,DateUTC
2013-03-24 00:01:00,33.7,29.1,30.31,WSW,239,0.0,0.0,83,0.00,CLR,,0.00,WeatherDisplay:10.37,2013-03-24 07:01:00,
2013-03-24 00:11:00,33.6,29.6,30.31,WSW,239,0.0,1.0,85,0.00,CLR,,0.00,WeatherDisplay:10.37,2013-03-24 07:11:00,
2013-03-24 00:16:00,33.7,29.7,30.31,WSW,239,0.0,1.0,85,0.00,CLR,,0.00,WeatherDisplay:10.37,2013-03-24 07:16:00,
2013-03-24 00:21:00,33.8,29.8,30.31,WSW,242,0.0,1.0,85,0.00,CLR,,0.00,WeatherDisplay:10.37,2013-03-24 07:21:00,
2013-03-24 00:26:00,33.8,29.8,30.31,WSW,251,0.0,0.0,85,0.00,CLR,,0.00,WeatherDisplay:10.37,2013-03-24 07:26:00,
2013-03-24 00:31:00,33.7,29.7,30.31,WSW,252,0.0,0.0,85,0.00,CLR,,0.00,WeatherDisplay:10.37,2013-03-24 07:31:00,
2013-03-24 00:36:00,33.6,29.6,30.31,WSW,238,1.0,2.0,85,0.00,CLR,,0.00,WeatherDisplay:10.37,2013-03-24 07:36:00,
2013-03-24 00:41:00,33.5,29.8,30.31,SW,235,0.0,1.0,86,0.00,CLR,,0.00,WeatherDisplay:10.37,2013-03-24 07:41:00,
2013-03-24 00:46:00,33.5,29.7,30.31,WSW,244,0.0,0.0,86,0.00,CLR,,0.00,WeatherDisplay:10.37,2013-03-24 07:46:00,
2013-03-24 00:51:00,33.4,29.7,30.31,WSW,243,0.0,1.0,86,0.00,CLR,,0.00,WeatherDisplay:10.37,2013-03-24 07:51:00,
2013-03-24 00:56:00,33.4,29.7,30.31,WSW,247,0.0,1.0,86,0.00,CLR,,0.00,WeatherDisplay:10.37,2013-03-24 07:56:00,
2013-03-24 01:01:00,33.5,29.8,30.31,West,281,0.0,1.0,86,0.00,CLR,,0.00,WeatherDisplay:10.37,2013-03-24 08:01:00,
2013-03-24 01:11:00,33.4,29.7,30.31,WNW,295,0.0,0.0,86,0.00,CLR,,0.00,WeatherDisplay:10.37,2013-03-24 08:11:00,
2013-03-24 01:16:00,33.3,29.6,30.31,WNW,295,0.0,0.0,86,0.00,CLR,,0.00,WeatherDisplay:10.37,2013-03-24 08:16:00,
2013-03-24 01:21:00,33.2,29.8,30.31,WNW,295,0.0,1.0,87,0.00,CLR,,0.00,WeatherDisplay:10.37,2013-03-24 08:21:00,
2013-03-24 01:26:00,33.1,29.7,30.31,WNW,295,0.0,1.0,87,0.00,CLR,,0.00,WeatherDisplay:10.37,2013-03-24 08:26:00,
2013-03-24 01:31:00,33.0,29.6,30.31,WNW,295,0.0,1.0,87,0.00,CLR,,0.00,WeatherDisplay:10.37,2013-03-24 08:31:00,
2013-03-24 01:36:00,32.8,29.4,30.31,WNW,295,0.0,0.0,87,0.00,CLR,,0.00,WeatherDisplay:10.37,2013-03-24 08:36:00,
2013-03-24 01:41:00,32.6,29.2,30.31,WNW,295,0.0,0.0,87,0.00,CLR,,0.00,WeatherDisplay:10.37,2013-03-24 08:41:00,
2013-03-24 01:46:00,32.4,29.0,30.31,WNW,295,0.0,0.0,87,0.00,CLR,,0.00,WeatherDisplay:10.37,2013-03-24 08:46:00,
2013-03-24 01:51:00,32.2,29.0,30.31,WNW,295,0.0,0.0,88,0.00,CLR,,0.00,WeatherDisplay:10.37,2013-03-24 08:51:00,
2013-03-24 02:01:00,31.8,28.9,30.31,WNW,295,0.0,0.0,89,0.00,CLR,,0.00,WeatherDisplay:10.37,2013-03-24 09:01:00,
2013-03-24 02:11:00,31.6,28.7,30.31,WNW,295,0.0,1.0,89,0.00,CLR,,0.00,WeatherDisplay:10.37,2013-03-24 09:11:00,
2013-03-24 02:16:00,31.6,29.0,30.31,WNW,295,0.0,0.0,90,0.00,CLR,,0.00,WeatherDisplay:10.37,2013-03-24 09:16:00,
2013-03-24 02:21:00,31.5,28.9,30.31,WNW,295,0.0,1.0,90,0.00,CLR,,0.00,WeatherDisplay:10.37,2013-03-24 09:21:00,
2013-03-24 02:26:00,31.4,28.8,30.31,WNW,295,0.0,1.0,90,0.00,CLR,,0.00,WeatherDisplay:10.37,2013-03-24 09:26:00,
2013-03-24 02:31:00,31.2,28.6,30.31,WNW,295,0.0,1.0,90,0.00,CLR,,0.00,WeatherDisplay:10.37,2013-03-24 09:31:00,
2013-03-24 02:36:00,31.1,28.5,30.31,WNW,295,0.0,0.0,90,0.00,CLR,,0.00,WeatherDisplay:10.37,2013-03-24 09:36:00,
2013-03-24 02:41:00,30.8,28.3,30.31,WNW,295,0.0,0.0,90,0.00,CLR,,0.00,WeatherDisplay:10.37,2013-03-24 09:41:00,
2013-03-24 02:46:00,30.5,27.9,30.31,WNW,295,0.0,0.0,90,0.00,CLR,,0.00,WeatherDisplay:10.37,2013-03-24 09:46:00,
2013-03-24 02:51:00,30.5,28.1,30.31,WNW,295,0.0,0.0,91,0.00,CLR,,0.00,WeatherDisplay:10.37,2013-03-24 09:51:00,
2013-03-24 02:56:00,30.4,28.1,30.31,WNW,295,0.0,0.0,91,0.00,CLR,,0.00,WeatherDisplay:10.37,2013-03-24 09:56:00,
2013-03-24 03:01:00,30.4,28.4,30.31,WNW,295,0.0,0.0,92,0.00,CLR,,0.00,WeatherDisplay:10.37,2013-03-24 10:01:00,
2013-03-24 03:11:00,30.6,28.6,30.31,WNW,295,0.0,0.0,92,0.00,CLR,,0.00,WeatherDisplay:10.37,2013-03-24 10:11:00,
2013-03-24 03:16:00,30.8,28.5,30.31,WNW,295,0.0,0.0,91,0.00,CLR,,0.00,WeatherDisplay:10.37,2013-03-24 10:16:00,
2013-03-24 03:21:00,30.8,28.5,30.31,WNW,295,0.0,0.0,91,0.00,CLR,,0.00,WeatherDisplay:10.37,2013-03-24 10:21:00,
2013-03-24 03:26:00,30.5,27.9,30.31,WNW,295,0.0,0.0,90,0.00,CLR,,0.00,WeatherDisplay:10.37,2013-03-24 10:26:00,
2013-03-24 03:31:00,30.1,27.5,30.31,WNW,295,0.0,0.0,90,0.00,CLR,,0.00,WeatherDisplay:10.37,2013-03-24 10:31:00,
2013-03-24 03:36:00,29.7,27.4,30.31,WNW,295,0.0,0.0,91,0.00,CLR,,0.00,WeatherDisplay:10.37,2013-03-24 10:36:00,
2013-03-24 03:41:00,29.4,27.1,30.31,WNW,295,0.0,0.0,91,0.00,CLR,,0.00,WeatherDisplay:10.37,2013-03-24 10:41:00,
2013-03-24 03:46:00,29.1,27.1,30.31,WNW,295,0.0,0.0,92,0.00,CLR,,0.00,WeatherDisplay:10.37,2013-03-24 10:46:00,
2013-03-24 03:51:00,28.9,26.8,30.31,WNW,295,0.0,0.0,92,0.00,CLR,,0.00,WeatherDisplay:10.37,2013-03-24 10:51:00,
2013-03-24 03:56:00,28.7,26.7,30.31,WNW,295,0.0,0.0,92,0.00,CLR,,0.00,WeatherDisplay:10.37,2013-03-24 10:56:00,
2013-03-24 04:01:00,28.6,26.8,30.30,WNW,295,0.0,0.0,93,0.00,CLR,,0.00,WeatherDisplay:10.37,2013-03-24 11:01:00,
2013-03-24 04:11:00,28.5,26.7,30.30,WNW,295,0.0,0.0,93,0.00,CLR,,0.00,WeatherDisplay:10.37,2013-03-24 11:11:00,
2013-03-24 04:16:00,28.4,26.6,30.30,WNW,295,0.0,0.0,93,0.00,CLR,,0.00,WeatherDisplay:10.37,2013-03-24 11:16:00,
2013-03-24 04:21:00,28.3,26.8,30.30,WNW,295,0.0,0.0,94,0.00,CLR,,0.00,WeatherDisplay:10.37,2013-03-24 11:21:00,
2013-03-24 04:26:00,28.2,26.7,30.30,WNW,295,0.0,0.0,94,0.00,CLR,,0.00,WeatherDisplay:10.37,2013-03-24 11:26:00,
2013-03-24 04:31:00,28.3,26.8,30.30,WNW,295,0.0,0.0,94,0.00,CLR,,0.00,WeatherDisplay:10.37,2013-03-24 11:31:00,
2013-03-24 04:36:00,28.4,26.9,30.30,WNW,295,0.0,0.0,94,0.00,CLR,,0.00,WeatherDisplay:10.37,2013-03-24 11:36:00,
2013-03-24 04:41:00,28.3,26.8,30.30,WNW,295,0.0,0.0,94,0.00,CLR,,0.00,WeatherDisplay:10.37,2013-03-24 11:41:00,
2013-03-24 04:46:00,28.5,27.3,30.30,WNW,295,0.0,1.0,95,0.00,CLR,,0.00,WeatherDisplay:10.37,2013-03-24 11:46:00,
2013-03-24 04:51:00,28.7,27.4,30.30,WNW,295,0.0,1.0,95,0.00,CLR,,0.00,WeatherDisplay:10.37,2013-03-24 11:51:00,
2013-03-24 04:56:00,28.8,27.5,30.30,WNW,295,0.0,0.0,95,0.00,CLR,,0.00,WeatherDisplay:10.37,2013-03-24 11:56:00,
2013-03-24 05:01:00,28.8,27.3,30.30,WNW,295,0.0,0.0,94,0.00,CLR,,0.00,WeatherDisplay:10.37,2013-03-24 12:01:00,
2013-03-24 05:11:00,28.6,27.1,30.30,WNW,295,0.0,0.0,94,0.00,CLR,,0.00,WeatherDisplay:10.37,2013-03-24 12:11:00,
2013-03-24 05:16:00,28.6,27.1,30.30,WNW,295,0.0,0.0,94,0.00,CLR,,0.00,WeatherDisplay:10.37,2013-03-24 12:16:00,
2013-03-24 05:21:00,28.6,27.1,30.30,WNW,295,0.0,0.0,94,0.00,CLR,,0.00,WeatherDisplay:10.37,2013-03-24 12:21:00,
2013-03-24 05:26:00,28.5,27.0,30.30,WNW,295,0.0,0.0,94,0.00,CLR,,0.00,WeatherDisplay:10.37,2013-03-24 12:26:00,
2013-03-24 05:31:00,28.4,26.9,30.29,WNW,295,0.0,0.0,94,0.00,CLR,,0.00,WeatherDisplay:10.37,2013-03-24 12:31:00,
2013-03-24 05:36:00,28.2,26.7,30.29,WNW,295,0.0,0.0,94,0.00,CLR,,0.00,WeatherDisplay:10.37,2013-03-24 12:36:00,
2013-03-24 05:41:00,28.2,26.9,30.29,WNW,295,0.0,0.0,95,0.00,CLR,,0.00,WeatherDisplay:10.37,2013-03-24 12:41:00,
2013-03-24 05:46:00,28.2,27.0,30.29,WNW,295,0.0,0.0,95,0.00,CLR,,0.00,WeatherDisplay:10.37,2013-03-24 12:46:00,
2013-03-24 05:51:00,28.2,27.0,30.29,WNW,295,0.0,0.0,95,0.00,CLR,,0.00,WeatherDisplay:10.37,2013-03-24 12:51:00,
2013-03-24 05:56:00,28.6,27.6,30.29,WNW,295,0.0,0.0,96,0.00,CLR,,0.00,WeatherDisplay:10.37,2013-03-24 12:56:00,
2013-03-24 06:06:00,28.9,27.7,30.29,WNW,295,0.0,0.0,95,0.00,CLR,,0.00,WeatherDisplay:10.37,2013-03-24 13:06:00,
2013-03-24 06:11:00,29.0,27.7,30.29,WNW,295,0.0,0.0,95,0.00,CLR,,0.00,WeatherDisplay:10.37,2013-03-24 13:11:00,
2013-03-24 06:16:00,28.9,27.6,30.29,WNW,295,0.0,0.0,95,0.00,CLR,,0.00,WeatherDisplay:10.37,2013-03-24 13:16:00,
2013-03-24 06:21:00,28.9,27.4,30.29,WNW,295,0.0,0.0,94,0.00,CLR,,0.00,WeatherDisplay:10.37,2013-03-24 13:21:00,
2013-03-24 06:26:00,28.7,27.2,30.29,WNW,295,0.0,0.0,94,0.00,CLR,,0.00,WeatherDisplay:10.37,2013-03-24 13:26:00,
2013-03-24 06:31:00,28.6,27.1,30.29,WNW,295,0.0,0.0,94,0.00,CLR,,0.00,WeatherDisplay:10.37,2013-03-24 13:31:00,
2013-03-24 06:36:00,28.6,27.1,30.29,WNW,295,0.0,0.0,94,0.00,CLR,,0.00,WeatherDisplay:10.37,2013-03-24 13:36:00,
2013-03-24 06:41:00,28.5,27.0,30.29,WNW,295,0.0,0.0,94,0.00,CLR,,0.00,WeatherDisplay:10.37,2013-03-24 13:41:00,
2013-03-24 06:46:00,28.3,27.1,30.30,WNW,295,0.0,0.0,95,0.00,CLR,,0.00,WeatherDisplay:10.37,2013-03-24 13:46:00,
2013-03-24 06:51:00,28.2,26.7,30.30,WNW,295,0.0,0.0,94,0.00,CLR,,0.00,WeatherDisplay:10.37,2013-03-24 13:51:00,
2013-03-24 06:56:00,28.1,26.9,30.30,WNW,295,0.0,0.0,95,0.00,CLR,,0.00,WeatherDisplay:10.37,2013-03-24 13:56:00,
2013-03-24 07:01:00,28.1,26.9,30.30,WNW,295,0.0,0.0,95,0.00,CLR,,0.00,WeatherDisplay:10.37,2013-03-24 14:01:00,
2013-03-24 07:11:00,28.0,26.8,30.30,WNW,295,0.0,1.0,95,0.00,CLR,,0.00,WeatherDisplay:10.37,2013-03-24 14:11:00,
2013-03-24 07:16:00,27.9,26.7,30.30,WNW,295,0.0,0.0,95,0.00,CLR,,0.00,WeatherDisplay:10.37,2013-03-24 14:16:00,
2013-03-24 07:21:00,27.8,26.6,30.30,WNW,295,0.0,1.0,95,0.00,CLR,,0.00,WeatherDisplay:10.37,2013-03-24 14:21:00,
2013-03-24 07:26:00,27.9,26.7,30.29,WNW,298,0.0,1.0,95,0.00,CLR,,0.00,WeatherDisplay:10.37,2013-03-24 14:26:00,
2013-03-24 07:31:00,27.9,26.7,30.30,NW,305,0.0,0.0,95,0.00,CLR,,0.00,WeatherDisplay:10.37,2013-03-24 14:31:00,
2013-03-24 07:36:00,28.0,27.0,30.30,NW,307,0.0,0.0,96,0.00,CLR,,0.00,WeatherDisplay:10.37,2013-03-24 14:36:00,
2013-03-24 07:41:00,28.3,27.3,30.30,WNW,296,0.0,0.0,96,0.00,CLR,,0.00,WeatherDisplay:10.37,2013-03-24 14:41:00,
2013-03-24 07:46:00,28.5,27.5,30.29,WNW,288,0.0,0.0,96,0.00,CLR,,0.00,WeatherDisplay:10.37,2013-03-24 14:46:00,
2013-03-24 07:51:00,28.6,27.6,30.29,WNW,289,0.0,1.0,96,0.00,CLR,,0.00,WeatherDisplay:10.37,2013-03-24 14:51:00,
2013-03-24 07:56:00,28.9,27.9,30.29,WNW,294,0.0,0.0,96,0.00,CLR,,0.00,WeatherDisplay:10.37,2013-03-24 14:56:00,
2013-03-24 08:01:00,29.2,28.2,30.30,WNW,294,0.0,1.0,96,0.00,CLR,,0.00,WeatherDisplay:10.37,2013-03-24 15:01:00,
2013-03-24 08:11:00,30.0,29.0,30.29,WNW,303,0.0,1.0,96,0.00,CLR,,0.00,WeatherDisplay:10.37,2013-03-24 15:11:00,
2013-03-24 08:16:00,30.5,29.4,30.29,NNW,345,0.0,1.0,96,0.00,CLR,,0.00,WeatherDisplay:10.37,2013-03-24 15:16:00,
2013-03-24 08:21:00,30.9,29.9,30.28,North,9,0.0,1.0,96,0.00,CLR,,0.00,WeatherDisplay:10.37,2013-03-24 15:21:00,
2013-03-24 08:26:00,31.3,30.1,30.28,North,2,0.0,1.0,95,0.00,CLR,,0.00,WeatherDisplay:10.37,2013-03-24 15:26:00,
2013-03-24 08:36:00,32.1,30.6,30.29,North,351,0.0,0.0,94,0.00,CLR,,0.00,WeatherDisplay:10.37,2013-03-24 15:36:00,
2013-03-24 08:46:00,32.7,30.6,30.28,NNE,15,1.0,1.0,92,0.00,CLR,,0.00,WeatherDisplay:10.37,2013-03-24 15:46:00,
2013-03-24 08:51:00,32.9,30.6,30.28,ENE,73,0.0,1.0,91,0.00,CLR,,0.00,WeatherDisplay:10.37,2013-03-24 15:51:00,
2013-03-24 09:01:00,33.2,30.8,30.28,East,98,0.0,1.0,91,0.00,CLR,,0.00,WeatherDisplay:10.37,2013-03-24 16:01:00,
2013-03-24 09:11:00,33.5,30.9,30.28,East,98,0.0,1.0,90,0.00,CLR,,0.00,WeatherDisplay:10.37,2013-03-24 16:11:00,
2013-03-24 09:16:00,33.7,30.8,30.28,East,98,0.0,1.0,89,0.00,CLR,,0.00,WeatherDisplay:10.37,2013-03-24 16:16:00,
2013-03-24 09:21:00,34.1,31.2,30.28,East,98,0.0,1.0,89,0.00,CLR,,0.00,WeatherDisplay:10.37,2013-03-24 16:21:00,
2013-03-24 09:26:00,34.6,32.0,30.28,East,98,0.0,1.0,90,0.00,CLR,,0.00,WeatherDisplay:10.37,2013-03-24 16:26:00,
2013-03-24 09:31:00,35.1,32.1,30.28,East,98,0.0,1.0,89,0.00,CLR,,0.00,WeatherDisplay:10.37,2013-03-24 16:31:00,
2013-03-24 09:36:00,35.5,32.5,30.28,East,99,0.0,1.0,89,0.00,CLR,,0.00,WeatherDisplay:10.37,2013-03-24 16:36:00,
2013-03-24 09:41:00,35.8,32.9,30.28,East,98,0.0,1.0,89,0.00,CLR,,0.00,WeatherDisplay:10.37,2013-03-24 16:41:00,
2013-03-24 09:46:00,36.2,33.0,30.28,East,99,0.0,1.0,88,0.00,CLR,,0.00,WeatherDisplay:10.37,2013-03-24 16:46:00,
2013-03-24 09:51:00,36.6,33.1,30.28,East,82,0.0,1.0,87,0.00,CLR,,0.00,WeatherDisplay:10.37,2013-03-24 16:51:00,
2013-03-24 09:56:00,37.3,33.5,30.28,NE,54,0.0,0.0,86,0.00,CLR,,0.00,WeatherDisplay:10.37,2013-03-24 16:56:00,
2013-03-24 10:01:00,38.0,33.3,30.28,NE,53,0.0,1.0,83,0.00,CLR,,0.00,WeatherDisplay:10.37,2013-03-24 17:01:00,
2013-03-24 10:11:00,39.1,33.1,30.28,East,96,0.0,2.0,79,0.00,CLR,,0.00,WeatherDisplay:10.37,2013-03-24 17:11:00,
2013-03-24 10:16:00,40.0,33.7,30.28,East,95,0.0,2.0,78,0.00,CLR,,0.00,WeatherDisplay:10.37,2013-03-24 17:16:00,
2013-03-24 10:21:00,40.9,33.5,30.27,East,88,0.0,1.0,75,0.00,CLR,,0.00,WeatherDisplay:10.37,2013-03-24 17:21:00,
2013-03-24 10:26:00,41.3,33.6,30.28,East,99,0.0,1.0,74,0.00,CLR,,0.00,WeatherDisplay:10.37,2013-03-24 17:26:00,
2013-03-24 10:31:00,41.5,32.4,30.27,SE,126,1.0,2.0,70,0.00,CLR,,0.00,WeatherDisplay:10.37,2013-03-24 17:31:00,
2013-03-24 10:36:00,41.7,32.3,30.27,SE,140,0.0,1.0,69,0.00,CLR,,0.00,WeatherDisplay:10.37,2013-03-24 17:36:00,
2013-03-24 10:41:00,42.2,32.8,30.27,SSE,149,1.0,2.0,69,0.00,CLR,,0.00,WeatherDisplay:10.37,2013-03-24 17:41:00,
2013-03-24 10:46:00,42.7,32.1,30.27,South,174,0.0,1.0,66,0.00,CLR,,0.00,WeatherDisplay:10.37,2013-03-24 17:46:00,
2013-03-24 10:51:00,43.1,32.5,30.27,SSE,148,0.0,2.0,66,0.00,CLR,,0.00,WeatherDisplay:10.37,2013-03-24 17:51:00,
2013-03-24 10:56:00,43.5,32.5,30.27,SE,142,0.0,1.0,65,0.00,CLR,,0.00,WeatherDisplay:10.37,2013-03-24 17:56:00,
2013-03-24 11:01:00,44.0,32.6,30.27,South,171,0.0,1.0,64,0.00,OVC,,0.00,WeatherDisplay:10.37,2013-03-24 18:01:00,
2013-03-24 11:11:00,44.7,32.0,30.27,South,182,1.0,2.0,61,0.00,OVC,,0.00,WeatherDisplay:10.37,2013-03-24 18:11:00,
2013-03-24 11:16:00,45.0,33.6,30.27,ESE,114,0.0,1.0,64,0.00,OVC,,0.00,WeatherDisplay:10.37,2013-03-24 18:16:00,
2013-03-24 11:21:00,45.4,33.9,30.27,East,94,1.0,1.0,64,0.00,OVC,,0.00,WeatherDisplay:10.37,2013-03-24 18:21:00,
2013-03-24 11:26:00,45.1,34.1,30.27,SSW,211,1.0,2.0,65,0.00,OVC,,0.00,WeatherDisplay:10.37,2013-03-24 18:26:00,
2013-03-24 11:31:00,45.1,35.2,30.27,SSW,208,0.0,1.0,68,0.00,OVC,,0.00,WeatherDisplay:10.37,2013-03-24 18:31:00,
2013-03-24 11:41:00,44.7,34.4,30.27,SW,217,1.0,3.0,67,0.00,OVC,,0.00,WeatherDisplay:10.37,2013-03-24 18:41:00,
2013-03-24 11:46:00,44.9,34.2,30.27,SSW,201,1.0,3.0,66,0.00,OVC,,0.00,WeatherDisplay:10.37,2013-03-24 18:46:00,
2013-03-24 11:51:00,44.9,34.6,30.27,SW,229,0.0,2.0,67,0.00,OVC,,0.00,WeatherDisplay:10.37,2013-03-24 18:51:00,
2013-03-24 11:56:00,45.1,34.0,30.27,WSW,240,1.0,3.0,65,0.00,OVC,,0.00,WeatherDisplay:10.37,2013-03-24 18:56:00,
2013-03-24 12:01:00,45.1,34.4,30.27,WSW,240,1.0,3.0,66,0.00,BKN,,0.00,WeatherDisplay:10.37,2013-03-24 19:01:00,
2013-03-24 12:11:00,45.4,34.4,30.26,WSW,237,1.0,3.0,65,0.00,BKN,,0.00,WeatherDisplay:10.37,2013-03-24 19:11:00,
2013-03-24 12:16:00,45.7,34.6,30.26,SW,226,1.0,4.0,65,0.00,BKN,,0.00,WeatherDisplay:10.37,2013-03-24 19:16:00,
2013-03-24 12:21:00,45.9,33.6,30.26,SW,219,1.0,2.0,62,0.00,BKN,,0.00,WeatherDisplay:10.37,2013-03-24 19:21:00,
2013-03-24 12:26:00,46.1,34.6,30.25,SW,215,1.0,5.0,64,0.00,BKN,,0.00,WeatherDisplay:10.37,2013-03-24 19:26:00,
2013-03-24 12:31:00,46.3,34.4,30.25,SW,215,1.0,3.0,63,0.00,BKN,,0.00,WeatherDisplay:10.37,2013-03-24 19:31:00,
2013-03-24 12:36:00,46.8,34.5,30.25,South,188,1.0,3.0,62,0.00,BKN,,0.00,WeatherDisplay:10.37,2013-03-24 19:36:00,
2013-03-24 12:41:00,47.5,34.3,30.25,South,177,1.0,3.0,60,0.00,BKN,,0.00,WeatherDisplay:10.37,2013-03-24 19:41:00,
2013-03-24 12:51:00,48.9,34.3,30.25,SSW,202,1.0,4.0,57,0.00,BKN,,0.00,WeatherDisplay:10.37,2013-03-24 19:51:00,
2013-03-24 12:56:00,49.2,33.7,30.25,SSW,207,1.0,2.0,55,0.00,BKN,,0.00,WeatherDisplay:10.37,2013-03-24 19:56:00,
2013-03-24 13:06:00,50.1,32.2,30.25,SSE,163,1.0,4.0,50,0.00,SCT,,0.00,WeatherDisplay:10.37,2013-03-24 20:06:00,
2013-03-24 13:11:00,50.3,32.4,30.24,SSW,208,0.0,2.0,50,0.00,SCT,,0.00,WeatherDisplay:10.37,2013-03-24 20:11:00,
2013-03-24 13:16:00,50.6,32.7,30.25,SSW,208,0.0,2.0,50,0.00,SCT,,0.00,WeatherDisplay:10.37,2013-03-24 20:16:00,
2013-03-24 13:21:00,51.1,31.5,30.24,SW,216,1.0,2.0,47,0.00,SCT,,0.00,WeatherDisplay:10.37,2013-03-24 20:21:00,
2013-03-24 13:26:00,51.2,31.6,30.24,SE,141,1.0,5.0,47,0.00,SCT,,0.00,WeatherDisplay:10.37,2013-03-24 20:26:00,
2013-03-24 13:31:00,51.4,31.3,30.24,SE,132,1.0,5.0,46,0.00,SCT,,0.00,WeatherDisplay:10.37,2013-03-24 20:31:00,
2013-03-24 13:36:00,51.6,27.4,30.24,SE,138,1.0,4.0,39,0.00,SCT,,0.00,WeatherDisplay:10.37,2013-03-24 20:36:00,
2013-03-24 13:41:00,51.5,27.3,30.24,SSE,155,2.0,6.0,39,0.00,SCT,,0.00,WeatherDisplay:10.37,2013-03-24 20:41:00,
2013-03-24 13:46:00,51.5,26.7,30.24,SSE,160,2.0,5.0,38,0.00,SCT,,0.00,WeatherDisplay:10.37,2013-03-24 20:46:00,
2013-03-24 13:51:00,51.7,27.5,30.24,SSE,148,1.0,5.0,39,0.00,SCT,,0.00,WeatherDisplay:10.37,2013-03-24 20:51:00,
2013-03-24 13:56:00,51.8,27.0,30.24,SSE,147,1.0,3.0,38,0.00,SCT,,0.00,WeatherDisplay:10.37,2013-03-24 20:56:00,
2013-03-24 14:01:00,52.0,30.7,30.24,SSE,165,1.0,5.0,44,0.00,OVC,,0.00,WeatherDisplay:10.37,2013-03-24 21:01:00,
2013-03-24 14:11:00,51.8,29.4,30.23,SSE,159,0.0,6.0,42,0.00,OVC,,0.00,WeatherDisplay:10.37,2013-03-24 21:11:00,
2013-03-24 14:16:00,52.0,29.6,30.23,SE,143,1.0,2.0,42,0.00,OVC,,0.00,WeatherDisplay:10.37,2013-03-24 21:16:00,
2013-03-24 14:21:00,52.2,27.3,30.23,ESE,115,1.0,4.0,38,0.00,OVC,,0.00,WeatherDisplay:10.37,2013-03-24 21:21:00,
2013-03-24 14:26:00,52.3,26.7,30.23,SSE,148,1.0,6.0,37,0.00,OVC,,0.00,WeatherDisplay:10.37,2013-03-24 21:26:00,
2013-03-24 14:31:00,52.2,26.0,30.22,SSW,193,1.0,3.0,36,0.00,OVC,,0.00,WeatherDisplay:10.37,2013-03-24 21:31:00,
2013-03-24 14:36:00,52.3,26.8,30.22,South,191,1.0,3.0,37,0.00,OVC,,0.00,WeatherDisplay:10.37,2013-03-24 21:36:00,
2013-03-24 14:41:00,52.3,29.9,30.22,SW,224,1.0,5.0,42,0.00,OVC,,0.00,WeatherDisplay:10.37,2013-03-24 21:41:00,
2013-03-24 14:46:00,52.6,29.5,30.22,SW,223,1.0,2.0,41,0.00,OVC,,0.00,WeatherDisplay:10.37,2013-03-24 21:46:00,
2013-03-24 14:51:00,52.9,31.0,30.22,WSW,241,2.0,5.0,43,0.00,OVC,,0.00,WeatherDisplay:10.37,2013-03-24 21:51:00,
2013-03-24 14:56:00,52.4,31.1,30.22,WSW,252,2.0,3.0,44,0.00,OVC,,0.00,WeatherDisplay:10.37,2013-03-24 21:56:00,
2013-03-24 15:01:00,52.2,30.4,30.21,SW,226,0.0,3.0,43,0.00,BKN,,0.00,WeatherDisplay:10.37,2013-03-24 22:01:00,
2013-03-24 15:11:00,52.1,31.4,30.21,WSW,255,1.0,4.0,45,0.00,BKN,,0.00,WeatherDisplay:10.37,2013-03-24 22:11:00,
2013-03-24 15:16:00,52.0,31.3,30.21,WSW,243,2.0,4.0,45,0.00,BKN,,0.00,WeatherDisplay:10.37,2013-03-24 22:16:00,
2013-03-24 15:21:00,51.8,29.4,30.20,WSW,241,2.0,5.0,42,0.00,BKN,,0.00,WeatherDisplay:10.37,2013-03-24 22:21:00,
2013-03-24 15:26:00,52.1,29.7,30.20,SW,233,1.0,3.0,42,0.00,BKN,,0.00,WeatherDisplay:10.37,2013-03-24 22:26:00,
2013-03-24 15:31:00,52.4,30.0,30.20,WSW,243,1.0,5.0,42,0.00,BKN,,0.00,WeatherDisplay:10.37,2013-03-24 22:31:00,
2013-03-24 15:36:00,52.6,28.9,30.20,WSW,249,2.0,4.0,40,0.00,BKN,,0.00,WeatherDisplay:10.37,2013-03-24 22:36:00,
2013-03-24 15:41:00,52.8,29.7,30.19,WSW,242,1.0,4.0,41,0.00,BKN,,0.00,WeatherDisplay:10.37,2013-03-24 22:41:00,
2013-03-24 15:46:00,52.9,30.4,30.19,SW,235,1.0,4.0,42,0.00,BKN,,0.00,WeatherDisplay:10.37,2013-03-24 22:46:00,
2013-03-24 15:51:00,53.3,29.6,30.19,WSW,249,1.0,3.0,40,0.00,BKN,,0.00,WeatherDisplay:10.37,2013-03-24 22:51:00,
2013-03-24 15:56:00,53.6,29.2,30.19,SW,219,1.0,4.0,39,0.00,BKN,,0.00,WeatherDisplay:10.37,2013-03-24 22:56:00,
2013-03-24 16:01:00,53.6,28.6,30.19,South,183,1.0,5.0,38,0.00,OVC,,0.00,WeatherDisplay:10.37,2013-03-24 23:01:00,
2013-03-24 16:11:00,53.2,28.9,30.18,SW,229,2.0,5.0,39,0.00,OVC,,0.00,WeatherDisplay:10.37,2013-03-24 23:11:00,
2013-03-24 16:16:00,53.4,29.7,30.18,WSW,237,1.0,3.0,40,0.00,OVC,,0.00,WeatherDisplay:10.37,2013-03-24 23:16:00,
2013-03-24 16:21:00,53.7,29.3,30.18,SW,234,1.0,3.0,39,0.00,OVC,,0.00,WeatherDisplay:10.37,2013-03-24 23:21:00,
2013-03-24 16:26:00,53.8,28.8,30.18,SW,234,2.0,5.0,38,0.00,OVC,,0.00,WeatherDisplay:10.37,2013-03-24 23:26:00,
2013-03-24 16:31:00,53.4,28.4,30.18,WSW,245,1.0,6.0,38,0.00,OVC,,0.00,WeatherDisplay:10.37,2013-03-24 23:31:00,
2013-03-24 16:36:00,53.7,29.3,30.18,SW,231,0.0,4.0,39,0.00,OVC,,0.00,WeatherDisplay:10.37,2013-03-24 23:36:00,
2013-03-24 16:41:00,54.1,29.7,30.17,SW,235,1.0,4.0,39,0.00,OVC,,0.00,WeatherDisplay:10.37,2013-03-24 23:41:00,
2013-03-24 16:46:00,54.2,29.2,30.17,SW,232,1.0,4.0,38,0.00,OVC,,0.00,WeatherDisplay:10.37,2013-03-24 23:46:00,
2013-03-24 16:51:00,54.3,29.2,30.17,SW,234,1.0,3.0,38,0.00,OVC,,0.00,WeatherDisplay:10.37,2013-03-24 23:51:00,
2013-03-24 16:56:00,54.3,29.2,30.17,WSW,246,0.0,3.0,38,0.00,OVC,,0.00,WeatherDisplay:10.37,2013-03-24 23:56:00,
2013-03-24 17:01:00,54.1,29.7,30.17,WSW,255,1.0,3.0,39,0.00,BKN,,0.00,WeatherDisplay:10.37,2013-03-25 00:01:00,
2013-03-24 17:11:00,54.1,28.4,30.17,SW,231,1.0,3.0,37,0.00,BKN,,0.00,WeatherDisplay:10.37,2013-03-25 00:11:00,
2013-03-24 17:16:00,54.0,28.9,30.16,SW,231,0.0,2.0,38,0.00,BKN,,0.00,WeatherDisplay:10.37,2013-03-25 00:16:00,
2013-03-24 17:21:00,54.0,28.2,30.16,SSW,207,1.0,2.0,37,0.00,BKN,,0.00,WeatherDisplay:10.37,2013-03-25 00:21:00,
2013-03-24 17:26:00,53.5,27.1,30.16,SSE,151,0.0,2.0,36,0.00,BKN,,0.00,WeatherDisplay:10.37,2013-03-25 00:26:00,
2013-03-24 17:31:00,53.2,27.6,30.16,South,182,1.0,2.0,37,0.00,BKN,,0.00,WeatherDisplay:10.37,2013-03-25 00:31:00,
2013-03-24 17:36:00,53.2,28.2,30.16,SW,236,1.0,2.0,38,0.00,BKN,,0.00,WeatherDisplay:10.37,2013-03-25 00:36:00,
2013-03-24 17:41:00,52.9,27.3,30.16,WSW,245,0.0,1.0,37,0.00,BKN,,0.00,WeatherDisplay:10.37,2013-03-25 00:41:00,
2013-03-24 17:46:00,52.8,27.9,30.15,WSW,248,0.0,2.0,38,0.00,BKN,,0.00,WeatherDisplay:10.37,2013-03-25 00:46:00,
2013-03-24 17:51:00,52.8,28.5,30.15,WSW,246,0.0,2.0,39,0.00,BKN,,0.00,WeatherDisplay:10.37,2013-03-25 00:51:00,
2013-03-24 17:56:00,52.8,29.1,30.15,WSW,258,0.0,1.0,40,0.00,BKN,,0.00,WeatherDisplay:10.37,2013-03-25 00:56:00,
2013-03-24 18:01:00,52.7,27.8,30.15,South,181,1.0,4.0,38,0.00,OVC,,0.00,WeatherDisplay:10.37,2013-03-25 01:01:00,
2013-03-24 18:11:00,52.4,28.8,30.15,SSW,210,0.0,2.0,40,0.00,OVC,,0.00,WeatherDisplay:10.37,2013-03-25 01:11:00,
2013-03-24 18:16:00,52.4,28.8,30.15,WSW,242,0.0,1.0,40,0.00,OVC,,0.00,WeatherDisplay:10.37,2013-03-25 01:16:00,
2013-03-24 18:21:00,52.3,28.1,30.15,SW,236,1.0,2.0,39,0.00,OVC,,0.00,WeatherDisplay:10.37,2013-03-25 01:21:00,
2013-03-24 18:31:00,52.1,29.1,30.14,SW,235,0.0,1.0,41,0.00,OVC,,0.00,WeatherDisplay:10.37,2013-03-25 01:31:00,
2013-03-24 18:36:00,51.9,28.9,30.14,SW,235,0.0,1.0,41,0.00,OVC,,0.00,WeatherDisplay:10.37,2013-03-25 01:36:00,
2013-03-24 18:41:00,51.6,28.6,30.14,SW,235,0.0,1.0,41,0.00,OVC,,0.00,WeatherDisplay:10.37,2013-03-25 01:41:00,
2013-03-24 18:46:00,51.2,29.5,30.14,SW,236,0.0,2.0,43,0.00,OVC,,0.00,WeatherDisplay:10.37,2013-03-25 01:46:00,
2013-03-24 18:51:00,50.9,29.7,30.14,SW,233,0.0,1.0,44,0.00,OVC,,0.00,WeatherDisplay:10.37,2013-03-25 01:51:00,
2013-03-24 18:56:00,50.5,29.9,30.14,SW,233,0.0,0.0,45,0.00,OVC,,0.00,WeatherDisplay:10.37,2013-03-25 01:56:00,
2013-03-24 19:01:00,50.0,31.0,30.14,SW,220,0.0,1.0,48,0.00,OVC,,0.00,WeatherDisplay:10.37,2013-03-25 02:01:00,
2013-03-24 19:11:00,49.1,31.2,30.14,SW,214,1.0,2.0,50,0.00,OVC,,0.00,WeatherDisplay:10.37,2013-03-25 02:11:00,
2013-03-24 19:16:00,48.9,31.5,30.14,SW,231,0.0,1.0,51,0.00,OVC,,0.00,WeatherDisplay:10.37,2013-03-25 02:16:00,
2013-03-24 19:21:00,48.3,31.5,30.14,SW,233,0.0,1.0,52,0.00,OVC,,0.00,WeatherDisplay:10.37,2013-03-25 02:21:00,
2013-03-24 19:26:00,47.9,32.1,30.14,SW,233,0.0,1.0,54,0.00,OVC,,0.00,WeatherDisplay:10.37,2013-03-25 02:26:00,
2013-03-24 19:31:00,47.3,32.0,30.14,SW,233,0.0,1.0,55,0.00,OVC,,0.00,WeatherDisplay:10.37,2013-03-25 02:31:00,
2013-03-24 19:36:00,46.8,31.4,30.14,SW,233,0.0,0.0,55,0.00,OVC,,0.00,WeatherDisplay:10.37,2013-03-25 02:36:00,
2013-03-24 19:41:00,46.3,31.9,30.14,SW,233,0.0,0.0,57,0.00,OVC,,0.00,WeatherDisplay:10.37,2013-03-25 02:41:00,
2013-03-24 19:46:00,45.9,32.0,30.14,SW,233,0.0,0.0,58,0.00,OVC,,0.00,WeatherDisplay:10.37,2013-03-25 02:46:00,
2013-03-24 19:51:00,45.4,32.4,30.14,SW,233,0.0,1.0,60,0.00,OVC,,0.00,WeatherDisplay:10.37,2013-03-25 02:51:00,
2013-03-24 19:56:00,45.0,31.9,30.14,SW,233,0.0,1.0,60,0.00,OVC,,0.00,WeatherDisplay:10.37,2013-03-25 02:56:00,
2013-03-24 20:06:00,44.3,32.1,30.14,SW,233,0.0,0.0,62,0.00,SCT,,0.00,WeatherDisplay:10.37,2013-03-25 03:06:00,
2013-03-24 20:11:00,43.7,32.7,30.14,SW,233,0.0,0.0,65,0.00,SCT,,0.00,WeatherDisplay:10.37,2013-03-25 03:11:00,
2013-03-24 20:16:00,43.3,33.1,30.14,SW,233,0.0,1.0,67,0.00,SCT,,0.00,WeatherDisplay:10.37,2013-03-25 03:16:00,
2013-03-24 20:21:00,42.8,32.3,30.14,SW,233,0.0,1.0,66,0.00,SCT,,0.00,WeatherDisplay:10.37,2013-03-25 03:21:00,
2013-03-24 20:26:00,42.9,32.3,30.14,SW,233,0.0,1.0,66,0.00,SCT,,0.00,WeatherDisplay:10.37,2013-03-25 03:26:00,
2013-03-24 20:31:00,42.7,32.9,30.14,SW,233,0.0,1.0,68,0.00,SCT,,0.00,WeatherDisplay:10.37,2013-03-25 03:31:00,
2013-03-24 20:36:00,42.2,32.8,30.14,SW,233,0.0,0.0,69,0.00,SCT,,0.00,WeatherDisplay:10.37,2013-03-25 03:36:00,
2013-03-24 20:41:00,41.7,32.3,30.14,SW,233,0.0,0.0,69,0.00,SCT,,0.00,WeatherDisplay:10.37,2013-03-25 03:41:00,
2013-03-24 20:46:00,41.3,32.3,30.14,SW,233,0.0,1.0,70,0.00,SCT,,0.00,WeatherDisplay:10.37,2013-03-25 03:46:00,
2013-03-24 20:51:00,41.1,32.1,30.14,SW,232,0.0,1.0,70,0.00,SCT,,0.00,WeatherDisplay:10.37,2013-03-25 03:51:00,
2013-03-24 20:56:00,41.5,32.4,30.14,West,259,0.0,2.0,70,0.00,SCT,,0.00,WeatherDisplay:10.37,2013-03-25 03:56:00,
2013-03-24 21:01:00,42.0,32.2,30.14,ENE,57,1.0,4.0,68,0.00,OVC,,0.00,WeatherDisplay:10.37,2013-03-25 04:01:00,
2013-03-24 21:06:00,42.1,31.9,30.14,ESE,113,0.0,1.0,67,0.00,OVC,,0.00,WeatherDisplay:10.37,2013-03-25 04:06:00,
2013-03-24 21:11:00,42.4,32.2,30.14,SE,139,1.0,1.0,67,0.00,OVC,,0.00,WeatherDisplay:10.37,2013-03-25 04:11:00,
2013-03-24 21:16:00,42.1,31.6,30.14,SE,132,0.0,1.0,66,0.00,OVC,,0.00,WeatherDisplay:10.37,2013-03-25 04:16:00,
2013-03-24 21:21:00,41.9,31.7,30.14,SE,137,0.0,2.0,67,0.00,OVC,,0.00,WeatherDisplay:10.37,2013-03-25 04:21:00,
2013-03-24 21:26:00,41.6,31.5,30.14,SE,144,0.0,1.0,67,0.00,OVC,,0.00,WeatherDisplay:10.37,2013-03-25 04:26:00,
2013-03-24 21:31:00,41.4,31.7,30.15,SE,138,0.0,2.0,68,0.00,OVC,,0.00,WeatherDisplay:10.37,2013-03-25 04:31:00,
2013-03-24 21:36:00,41.1,31.7,30.15,SE,131,0.0,1.0,69,0.00,OVC,,0.00,WeatherDisplay:10.37,2013-03-25 04:36:00,
2013-03-24 21:41:00,40.8,31.8,30.15,SE,131,0.0,0.0,70,0.00,OVC,,0.00,WeatherDisplay:10.37,2013-03-25 04:41:00,
2013-03-24 21:46:00,40.5,31.1,30.15,SE,131,0.0,0.0,69,0.00,OVC,,0.00,WeatherDisplay:10.37,2013-03-25 04:46:00,
2013-03-24 21:51:00,40.3,31.3,30.15,SE,131,0.0,0.0,70,0.00,OVC,,0.00,WeatherDisplay:10.37,2013-03-25 04:51:00,
2013-03-24 21:56:00,40.2,31.2,30.15,SE,131,0.0,0.0,70,0.00,OVC,,0.00,WeatherDisplay:10.37,2013-03-25 04:56:00,
2013-03-24 22:01:00,40.2,31.5,30.14,SE,131,0.0,0.0,71,0.00,OVC,,0.00,WeatherDisplay:10.37,2013-03-25 05:01:00,
2013-03-24 22:11:00,40.2,30.8,30.15,SE,131,0.0,1.0,69,0.00,OVC,,0.00,WeatherDisplay:10.37,2013-03-25 05:11:00,
2013-03-24 22:16:00,40.1,30.4,30.14,SE,131,0.0,0.0,68,0.00,OVC,,0.00,WeatherDisplay:10.37,2013-03-25 05:16:00,
2013-03-24 22:21:00,39.9,29.8,30.14,SE,131,0.0,0.0,67,0.00,OVC,,0.00,WeatherDisplay:10.37,2013-03-25 05:21:00,
2013-03-24 22:26:00,39.6,29.6,30.14,SE,131,0.0,0.0,67,0.00,OVC,,0.00,WeatherDisplay:10.37,2013-03-25 05:26:00,
2013-03-24 22:36:00,39.5,28.7,30.14,SE,131,0.0,0.0,65,0.00,OVC,,0.00,WeatherDisplay:10.37,2013-03-25 05:36:00,
2013-03-24 22:41:00,39.8,29.0,30.14,SE,130,0.0,0.0,65,0.00,OVC,,0.00,WeatherDisplay:10.37,2013-03-25 05:41:00,
2013-03-24 22:46:00,39.9,29.1,30.14,SE,129,0.0,0.0,65,0.00,OVC,,0.00,WeatherDisplay:10.37,2013-03-25 05:46:00,
2013-03-24 22:51:00,40.0,28.8,30.14,SE,129,0.0,0.0,64,0.00,OVC,,0.00,WeatherDisplay:10.37,2013-03-25 05:51:00,
2013-03-24 22:56:00,40.4,29.2,30.14,SE,129,0.0,0.0,64,0.00,OVC,,0.00,WeatherDisplay:10.37,2013-03-25 05:56:00,
2013-03-24 23:01:00,40.5,28.9,30.14,SE,128,0.0,0.0,63,0.00,OVC,,0.00,WeatherDisplay:10.37,2013-03-25 06:01:00,
2013-03-24 23:11:00,40.9,28.5,30.15,SE,132,0.0,0.0,61,0.00,OVC,,0.00,WeatherDisplay:10.37,2013-03-25 06:11:00,
2013-03-24 23:16:00,41.0,28.6,30.15,SE,135,0.0,1.0,61,0.00,OVC,,0.00,WeatherDisplay:10.37,2013-03-25 06:16:00,
2013-03-24 23:21:00,41.3,28.5,30.15,SE,139,0.0,1.0,60,0.00,OVC,,0.00,WeatherDisplay:10.37,2013-03-25 06:21:00,
2013-03-24 23:26:00,41.6,28.3,30.15,SSE,155,0.0,1.0,59,0.00,OVC,,0.00,WeatherDisplay:10.37,2013-03-25 06:26:00,
2013-03-24 23:31:00,41.8,28.5,30.15,South,172,0.0,0.0,59,0.00,OVC,,0.00,WeatherDisplay:10.37,2013-03-25 06:31:00,
2013-03-24 23:36:00,41.9,28.6,30.15,South,176,0.0,0.0,59,0.00,OVC,,0.00,WeatherDisplay:10.37,2013-03-25 06:36:00,
2013-03-24 23:41:00,41.8,28.6,30.14,South,176,0.0,0.0,59,0.00,OVC,,0.00,WeatherDisplay:10.37,2013-03-25 06:41:00,
2013-03-24 23:46:00,41.9,28.6,30.14,SSW,196,0.0,1.0,59,0.00,OVC,,0.00,WeatherDisplay:10.37,2013-03-25 06:46:00,
2013-03-24 23:51:00,41.8,28.5,30.14,West,270,0.0,1.0,59,0.00,OVC,,0.00,WeatherDisplay:10.37,2013-03-25 06:51:00,
2013-03-24 23:56:00,41.7,28.0,30.14,WNW,295,0.0,1.0,58,0.00,OVC,,0.00,WeatherDisplay:10.37,2013-03-25 06:56:00,